Time;durP1;ratioP1;P1;durP2;ratioP2;P2;SDS_P1;SDS_P2;PMS_P1;PMS_P2;Temp;Humidity;BMP_temperature;BMP_pressure;BME280_temperature;BME280_humidity;BME280_pressure;Samples;Min_cycle;Max_cycle;Signal;HPM_P1;HPM_P2
2023/07/07 00:01:01;;;;;;;;;4.00;4.00;;;;;27.43;34.84;101429.53;5097409;27;45397;-76
2023/07/07 00:03:26;;;;;;;;;4.00;4.00;;;;;27.44;35.28;101425.81;5099151;27;46258;-76
2023/07/07 00:05:52;;;;;;;;;3.00;2.33;;;;;27.39;34.81;101413.91;5097377;27;45446;-75
2023/07/07 00:08:17;;;;;;;;;4.00;4.00;;;;;27.43;35.12;101432.19;5098545;27;45428;-75
2023/07/07 00:10:42;;;;;;;;;3.00;3.00;;;;;27.40;34.91;101428.09;5097214;27;45345;-75
2023/07/07 00:13:12;;;;;;;;;3.00;3.00;;;;;27.48;34.90;101446.56;5096956;27;45547;-75
2023/07/07 00:15:43;;;;;;;;;3.00;3.00;;;;;27.46;34.91;101440.63;5098568;27;45383;-76
2023/07/07 00:18:09;;;;;;;;;4.33;4.33;;;;;27.47;34.66;101442.28;5098270;27;45341;-75
2023/07/07 00:20:34;;;;;;;;;3.00;3.00;;;;;27.46;35.35;101442.47;5098338;27;45316;-75
2023/07/07 00:23:00;;;;;;;;;3.00;3.00;;;;;27.44;35.10;101440.00;5096974;27;46219;-75
2023/07/07 00:25:25;;;;;;;;;3.33;3.33;;;;;27.42;34.98;101431.38;5097936;27;45387;-75
2023/07/07 00:27:50;;;;;;;;;5.00;3.67;;;;;27.44;35.33;101441.84;5096293;27;45437;-76
2023/07/07 00:30:16;;;;;;;;;3.67;3.67;;;;;27.45;35.03;101440.84;5098307;27;45399;-76
2023/07/07 00:32:41;;;;;;;;;6.00;4.33;;;;;27.46;34.98;101447.81;5098059;27;47763;-76
2023/07/07 00:35:07;;;;;;;;;5.00;3.33;;;;;27.47;35.38;101454.81;5096830;27;45887;-75
2023/07/07 00:37:34;;;;;;;;;3.33;3.33;;;;;27.44;35.29;101439.16;5096907;27;45403;-75
2023/07/07 00:39:59;;;;;;;;;3.33;3.33;;;;;27.39;35.26;101435.28;5096668;27;45539;-75
2023/07/07 00:42:24;;;;;;;;;2.00;2.00;;;;;27.42;35.21;101439.38;5096055;27;46429;-75
2023/07/07 00:45:08;;;;;;;;;2.00;2.00;;;;;27.49;35.41;101450.06;5098054;27;45458;-76
2023/07/07 00:47:39;;;;;;;;;2.67;2.67;;;;;27.39;35.46;101434.44;5097721;27;45310;-76
2023/07/07 00:50:07;;;;;;;;;5.00;4.00;;;;;27.42;35.37;101444.72;5096583;27;45653;-75
2023/07/07 00:52:34;;;;;;;;;4.33;3.67;;;;;27.47;34.92;101457.47;5096611;27;47190;-76
2023/07/07 00:54:59;;;;;;;;;3.67;3.00;;;;;27.43;35.50;101449.03;5097276;27;45301;-76
2023/07/07 00:57:25;;;;;;;;;3.00;3.00;;;;;27.46;34.77;101445.13;5113945;27;45612;-75
2023/07/07 00:59:50;;;;;;;;;3.00;3.00;;;;;27.40;34.80;101430.75;5097600;27;45509;-76
2023/07/07 01:02:24;;;;;;;;;4.00;4.00;;;;;27.41;35.23;101437.72;5097581;27;46205;-76
2023/07/07 01:04:53;;;;;;;;;2.00;2.00;;;;;27.46;35.20;101442.47;5097770;27;45407;-75
2023/07/07 01:07:23;;;;;;;;;3.33;3.33;;;;;27.40;34.96;101436.09;5097511;27;45430;-75
2023/07/07 01:09:49;;;;;;;;;2.67;2.67;;;;;27.42;35.35;101430.53;5097520;27;45538;-75
2023/07/07 01:12:15;;;;;;;;;4.00;4.00;;;;;27.47;35.29;101441.44;5097768;27;45223;-76
2023/07/07 01:14:45;;;;;;;;;4.33;3.00;;;;;27.40;34.74;101428.09;5096474;27;45296;-75
2023/07/07 01:17:39;;;;;;;;;2.67;2.67;;;;;27.49;35.29;101439.38;5096132;27;45344;-76
2023/07/07 01:21:01;;;;;;;;;4.00;4.00;;;;;27.48;34.81;101435.88;5095961;27;45348;-76
2023/07/07 01:23:57;;;;;;;;;4.00;2.67;;;;;27.46;34.66;101435.28;5074289;27;46307;-75
2023/07/07 01:26:51;;;;;;;;;3.00;3.00;;;;;27.46;35.37;101435.28;5057715;28;45413;-76
2023/07/07 01:29:31;;;;;;;;;4.00;4.00;;;;;27.45;35.11;101432.81;5073946;28;45314;-76
2023/07/07 01:32:19;;;;;;;;;3.00;3.00;;;;;27.42;35.35;101427.88;5073754;28;45439;-75
2023/07/07 01:34:46;;;;;;;;;3.33;2.00;;;;;27.37;35.08;101413.28;5071574;28;45416;-75
2023/07/07 01:37:12;;;;;;;;;4.67;4.67;;;;;27.40;35.40;101420.06;5073947;28;45366;-76
2023/07/07 01:39:38;;;;;;;;;5.00;5.00;;;;;27.34;34.66;101410.19;5073148;28;45527;-75
2023/07/07 01:42:14;;;;;;;;;4.00;4.00;;;;;27.40;35.43;101417.41;5057502;28;45634;-75
2023/07/07 01:45:23;;;;;;;;;4.00;4.00;;;;;27.41;35.37;101424.38;5056541;28;46827;-76
2023/07/07 01:47:59;;;;;;;;;5.33;3.67;;;;;27.38;35.21;101412.25;5067033;28;45404;-75
2023/07/07 01:50:30;;;;;;;;;3.00;3.00;;;;;27.43;35.37;101414.28;5074324;27;45334;-75
2023/07/07 01:53:03;;;;;;;;;3.67;3.67;;;;;27.44;35.29;101415.13;5090916;27;45422;-75
2023/07/07 01:55:37;;;;;;;;;4.67;4.33;;;;;27.39;35.28;101408.56;5074003;27;46492;-75
2023/07/07 01:58:07;;;;;;;;;3.67;3.67;;;;;27.44;35.69;101415.13;5073985;27;45673;-75
2023/07/07 02:00:33;;;;;;;;;5.00;3.67;;;;;27.41;34.57;101408.34;5105628;27;45428;-75
2023/07/07 02:02:59;;;;;;;;;6.00;5.00;;;;;27.43;34.58;101410.81;5076373;27;45419;-76
2023/07/07 02:05:27;;;;;;;;;3.00;3.00;;;;;27.38;35.02;101400.72;5074844;27;46876;-75
2023/07/07 02:07:52;;;;;;;;;5.00;5.00;;;;;27.38;34.88;101409.56;5074887;27;45561;-75
2023/07/07 02:10:18;;;;;;;;;4.67;3.33;;;;;27.37;34.64;101399.94;5075004;28;45491;-76
2023/07/07 02:12:43;;;;;;;;;5.67;4.00;;;;;27.39;34.91;101408.56;5076099;27;45549;-76
2023/07/07 02:15:09;;;;;;;;;4.67;4.67;;;;;27.37;34.92;101399.94;5076029;27;45361;-76
2023/07/07 02:17:34;;;;;;;;;3.67;3.67;;;;;27.39;35.07;101402.38;5076195;27;45371;-75
2023/07/07 02:19:59;;;;;;;;;4.67;4.33;;;;;27.38;35.03;101406.91;5076274;27;45628;-75
2023/07/07 02:22:25;;;;;;;;;6.00;4.00;;;;;27.39;35.12;101405.06;5075907;27;45340;-75
2023/07/07 02:24:51;;;;;;;;;3.00;3.00;;;;;27.41;34.71;101405.66;5076017;27;45681;-76
2023/07/07 02:27:16;;;;;;;;;7.00;4.00;;;;;27.35;35.01;101396.59;5074773;27;45466;-75
2023/07/07 02:29:42;;;;;;;;;6.00;5.00;;;;;27.40;35.15;101404.03;5076105;27;45441;-75
2023/07/07 02:32:07;;;;;;;;;3.33;3.33;;;;;27.39;35.24;101399.72;5074591;27;45583;-75
2023/07/07 02:34:33;;;;;;;;;6.00;5.33;;;;;27.37;35.17;101391.06;5075912;27;46568;-75
2023/07/07 02:36:59;;;;;;;;;4.00;4.00;;;;;27.23;34.74;101372.34;5075490;28;45254;-75
2023/07/07 02:39:25;;;;;;;;;4.00;4.00;;;;;27.35;35.17;101393.13;5091434;27;45240;-75
2023/07/07 02:41:51;;;;;;;;;4.00;4.00;;;;;27.37;34.74;101397.25;5076505;27;45584;-75
2023/07/07 02:44:16;;;;;;;;;4.00;4.00;;;;;27.35;34.89;101395.81;5075547;27;45332;-76
2023/07/07 02:46:42;;;;;;;;;4.00;4.00;;;;;27.37;35.07;101401.75;5074502;27;45421;-75
2023/07/07 02:49:07;;;;;;;;;4.00;4.00;;;;;27.31;35.26;101387.38;5075551;27;45304;-76
2023/07/07 02:51:32;;;;;;;;;7.00;5.67;;;;;27.39;34.89;101400.53;5084396;27;45650;-76
2023/07/07 02:53:58;;;;;;;;;4.67;3.67;;;;;27.36;35.18;101397.44;5077753;28;48257;-76
2023/07/07 02:56:23;;;;;;;;;6.00;6.00;;;;;27.38;35.09;101401.56;5079152;27;45439;-76
2023/07/07 02:58:48;;;;;;;;;5.67;4.67;;;;;27.39;35.14;101407.72;5101011;27;45302;-75
2023/07/07 03:01:16;;;;;;;;;5.00;4.00;;;;;27.34;35.02;101397.66;5099894;27;45531;-75
2023/07/07 03:03:44;;;;;;;;;4.00;4.00;;;;;27.39;35.06;101403.22;5098695;27;47157;-76
2023/07/07 03:06:13;;;;;;;;;3.00;3.00;;;;;27.35;35.13;101385.13;5097853;27;45370;-75
2023/07/07 03:08:38;;;;;;;;;5.00;5.00;;;;;27.37;35.07;101399.09;5099366;27;45394;-75
2023/07/07 03:11:10;;;;;;;;;4.00;4.00;;;;;27.40;34.65;101402.16;5099535;27;45622;-76
2023/07/07 03:13:37;;;;;;;;;6.00;5.00;;;;;27.33;34.49;101387.16;5098090;27;47331;-76
2023/07/07 03:16:12;;;;;;;;;4.00;4.00;;;;;27.40;34.42;101401.38;5097525;27;45349;-76
2023/07/07 03:18:39;;;;;;;;;7.00;5.00;;;;;27.33;35.11;101395.16;5099653;27;45412;-76
2023/07/07 03:21:04;;;;;;;;;6.00;6.00;;;;;27.36;34.67;101394.75;5099182;27;45311;-76
2023/07/07 03:23:30;;;;;;;;;6.00;6.00;;;;;27.33;34.95;101384.47;5099133;27;45426;-75
2023/07/07 03:25:55;;;;;;;;;4.00;4.00;;;;;27.30;34.61;101385.72;5098360;27;45395;-76
2023/07/07 03:28:20;;;;;;;;;8.67;5.33;;;;;27.31;34.39;101389.22;5099159;27;45397;-76
2023/07/07 03:30:48;;;;;;;;;5.00;5.00;;;;;27.36;34.59;101400.09;5097508;27;45492;-76
2023/07/07 03:33:13;;;;;;;;;5.00;5.00;;;;;27.33;34.85;101393.31;5098962;27;45393;-76
2023/07/07 03:35:39;;;;;;;;;6.00;5.00;;;;;27.36;34.58;101408.13;5098699;27;45302;-75
2023/07/07 03:38:05;;;;;;;;;4.33;4.33;;;;;27.31;34.54;101395.38;5097713;27;45501;-76
2023/07/07 03:40:31;;;;;;;;;4.00;4.00;;;;;27.35;34.46;101396.59;5099434;27;45315;-76
2023/07/07 03:42:56;;;;;;;;;4.67;4.67;;;;;27.34;34.80;101399.50;5098833;27;46144;-75
2023/07/07 03:45:22;;;;;;;;;7.67;5.00;;;;;27.20;34.87;101383.44;5097440;27;45319;-75
2023/07/07 03:47:48;;;;;;;;;8.00;6.00;;;;;27.33;34.83;101405.84;5097642;27;45233;-76
2023/07/07 03:50:13;;;;;;;;;5.67;5.00;;;;;27.33;35.11;101401.34;5096574;27;45635;-76
2023/07/07 03:52:38;;;;;;;;;5.00;3.33;;;;;27.31;34.57;101398.06;5098859;27;46487;-76
2023/07/07 03:55:04;;;;;;;;;4.00;4.00;;;;;27.31;34.78;101407.91;5098497;27;45679;-76
2023/07/07 03:57:30;;;;;;;;;6.00;6.00;;;;;27.33;34.90;101416.53;5097602;27;45425;-76
2023/07/07 03:59:55;;;;;;;;;6.67;4.67;;;;;27.29;35.06;101408.13;5102482;27;45342;-76
2023/07/07 04:02:20;;;;;;;;;5.00;5.00;;;;;27.29;35.04;101406.28;5096422;27;46858;-76
2023/07/07 04:04:46;;;;;;;;;3.67;3.67;;;;;27.30;34.92;101401.75;5096686;27;45603;-75
2023/07/07 04:07:11;;;;;;;;;7.67;5.67;;;;;27.34;34.59;101419.03;5098688;27;45419;-76
2023/07/07 04:09:37;;;;;;;;;5.00;5.00;;;;;27.36;34.57;101413.47;5098568;27;45625;-75
2023/07/07 04:12:06;;;;;;;;;8.00;5.00;;;;;27.31;34.63;101406.06;5097254;27;47655;-76
2023/07/07 04:14:31;;;;;;;;;7.00;5.00;;;;;27.36;34.59;101408.94;5097347;27;45466;-76
2023/07/07 04:16:57;;;;;;;;;5.00;4.00;;;;;27.34;34.45;101411.00;5097317;27;45390;-76
2023/07/07 04:19:22;;;;;;;;;4.67;4.00;;;;;27.32;34.39;101414.91;5098162;27;45562;-75
2023/07/07 04:21:47;;;;;;;;;5.33;5.33;;;;;27.29;34.47;101411.63;5097100;27;46664;-76
2023/07/07 04:24:13;;;;;;;;;3.00;3.00;;;;;27.31;34.48;101414.09;5096962;27;45248;-75
2023/07/07 04:26:39;;;;;;;;;6.00;5.00;;;;;27.34;34.41;101420.88;5098346;27;45404;-76
2023/07/07 04:29:04;;;;;;;;;5.33;5.33;;;;;27.34;34.75;101420.88;5114381;27;45573;-76
2023/07/07 04:31:30;;;;;;;;;5.00;5.00;;;;;27.29;34.75;101413.47;5097768;27;45817;-75
2023/07/07 04:33:56;;;;;;;;;3.33;3.33;;;;;27.37;34.66;101423.97;5097970;27;45441;-76
2023/07/07 04:36:22;;;;;;;;;4.67;4.00;;;;;27.31;34.47;101419.44;5097117;27;45441;-76
2023/07/07 04:38:49;;;;;;;;;4.00;4.00;;;;;27.37;34.55;101431.16;5096768;27;45537;-76
2023/07/07 04:41:16;;;;;;;;;4.00;4.00;;;;;27.37;34.78;101429.31;5097904;27;45532;-76
2023/07/07 04:43:44;;;;;;;;;6.67;6.00;;;;;27.37;34.55;101429.31;5096618;27;45460;-76
2023/07/07 04:46:12;;;;;;;;;5.00;5.00;;;;;27.37;34.19;101434.66;5097668;27;45560;-76
2023/07/07 04:48:39;;;;;;;;;3.67;3.67;;;;;27.33;34.16;101422.72;5097473;27;45477;-76
2023/07/07 04:51:08;;;;;;;;;5.00;5.00;;;;;27.35;34.33;101422.53;5097657;27;46823;-76
2023/07/07 04:53:34;;;;;;;;;7.33;4.00;;;;;27.41;34.66;101427.03;5096316;27;45472;-76
2023/07/07 04:56:04;;;;;;;;;3.67;3.67;;;;;27.33;34.53;101422.72;5097751;27;45409;-76
2023/07/07 04:58:29;;;;;;;;;6.00;6.00;;;;;27.42;34.15;101438.56;5097649;27;45327;-75
2023/07/07 05:01:08;;;;;;;;;6.33;6.00;;;;;27.47;34.48;101441.44;5097648;27;45973;-76
2023/07/07 05:03:35;;;;;;;;;5.00;5.00;;;;;27.45;34.37;101441.66;5095663;27;45476;-76
2023/07/07 05:06:03;;;;;;;;;4.00;3.67;;;;;27.31;34.48;101418.59;5097716;27;45319;-76
2023/07/07 05:08:29;;;;;;;;;6.67;5.67;;;;;27.40;33.89;101438.78;5097735;27;45450;-75
2023/07/07 05:10:55;;;;;;;;;6.00;3.67;;;;;27.42;34.10;101433.22;5096218;27;45317;-76
2023/07/07 05:13:20;;;;;;;;;6.67;6.67;;;;;27.44;34.30;101441.84;5096060;27;46029;-76
2023/07/07 05:15:45;;;;;;;;;5.33;4.33;;;;;27.32;34.25;101415.75;5097139;27;45321;-76
2023/07/07 05:18:11;;;;;;;;;4.00;4.00;;;;;27.45;34.14;101448.84;5096571;27;45299;-76
2023/07/07 05:20:36;;;;;;;;;4.67;4.33;;;;;27.46;34.46;101447.81;5095968;27;48258;-76
2023/07/07 05:23:01;;;;;;;;;5.00;5.00;;;;;27.45;34.50;101448.84;5097475;27;45298;-76
2023/07/07 05:25:27;;;;;;;;;6.33;6.00;;;;;27.41;34.20;101437.72;5097496;27;45381;-77
2023/07/07 05:27:52;;;;;;;;;5.00;5.00;;;;;27.45;34.04;101446.16;5096877;27;45286;-78
2023/07/07 05:30:17;;;;;;;;;3.00;3.00;;;;;27.47;34.20;101444.94;5094643;27;47599;-78
2023/07/07 05:32:43;;;;;;;;;3.00;3.00;;;;;27.47;34.08;101450.28;5088428;27;45308;-77
2023/07/07 05:35:08;;;;;;;;;4.00;3.50;;;;;27.52;34.34;101452.34;5086466;27;45969;-77
2023/07/07 05:37:34;;;;;;;;;3.33;3.33;;;;;27.52;34.11;101449.66;5088127;27;45334;-78
2023/07/07 05:39:59;;;;;;;;;4.33;4.00;;;;;27.52;34.53;101449.66;5094419;27;45805;-78
2023/07/07 05:42:26;;;;;;;;;7.00;4.00;;;;;27.52;34.45;101447.84;5089000;27;45604;-82
2023/07/07 05:44:51;;;;;;;;;5.67;4.33;;;;;27.49;34.69;101437.53;5087030;27;45468;-83
2023/07/07 05:47:18;;;;;;;;;4.33;4.33;;;;;27.55;34.38;101441.25;5094300;27;45529;-84
2023/07/07 05:49:43;;;;;;;;;4.00;4.00;;;;;27.55;34.30;101440.44;5095542;27;45516;-83
2023/07/07 05:52:09;;;;;;;;;7.00;6.00;;;;;27.59;34.69;101445.16;5094028;27;45321;-81
2023/07/07 05:54:34;;;;;;;;;4.33;4.33;;;;;27.63;34.29;101446.41;5096263;27;45296;-82
2023/07/07 05:57:02;;;;;;;;;4.67;4.67;;;;;27.60;34.23;101449.50;5096032;27;45292;-83
2023/07/07 05:59:27;;;;;;;;;1.33;1.33;;;;;27.65;34.39;101451.53;5094545;27;46618;-83
2023/07/07 06:01:52;;;;;;;;;7.00;5.00;;;;;27.61;34.98;101440.44;5095101;27;45372;-83
2023/07/07 06:04:18;;;;;;;;;3.67;3.67;;;;;27.67;34.82;101446.81;5095445;27;45366;-83
2023/07/07 06:06:43;;;;;;;;;4.67;4.67;;;;;27.62;34.55;101444.75;5096769;27;45609;-82
2023/07/07 06:09:08;;;;;;;;;5.00;5.00;;;;;27.68;34.65;101447.63;5094252;27;47529;-83
2023/07/07 06:11:34;;;;;;;;;4.00;4.00;;;;;27.66;35.22;101444.34;5095629;27;45325;-83
2023/07/07 06:13:59;;;;;;;;;6.67;5.67;;;;;27.64;35.07;101439.19;5112095;27;45347;-84
2023/07/07 06:16:24;;;;;;;;;6.00;6.00;;;;;27.69;34.85;101447.41;5095017;27;45276;-82
2023/07/07 06:18:50;;;;;;;;;3.67;3.67;;;;;27.68;35.04;101439.63;5095227;27;47241;-83
2023/07/07 06:21:15;;;;;;;;;3.00;3.00;;;;;27.73;35.04;101447.84;5095195;27;45542;-84
2023/07/07 06:23:42;;;;;;;;;5.00;5.00;;;;;27.74;34.56;101442.28;5096571;27;45442;-83
2023/07/07 06:26:07;;;;;;;;;4.00;4.00;;;;;27.74;34.93;101442.28;5096297;27;45629;-84
2023/07/07 06:28:32;;;;;;;;;4.00;4.00;;;;;27.70;34.52;101432.22;5094634;27;45429;-82
2023/07/07 06:30:58;;;;;;;;;4.67;4.67;;;;;27.75;34.48;101448.47;5096342;27;45364;-87
2023/07/07 06:33:24;;;;;;;;;6.00;5.00;;;;;27.79;35.06;101444.34;5096606;27;45294;-84
2023/07/07 06:35:50;;;;;;;;;5.00;5.00;;;;;27.77;34.29;101449.06;5096546;27;45377;-81
2023/07/07 06:38:18;;;;;;;;;3.67;3.33;;;;;27.74;34.61;101446.81;5111872;27;46505;-85
2023/07/07 06:40:46;;;;;;;;;4.33;4.33;;;;;27.73;34.28;101446.00;5095504;27;45455;-85
2023/07/07 06:43:12;;;;;;;;;4.00;4.00;;;;;27.74;34.40;101446.81;5095931;27;45439;-85
2023/07/07 06:45:38;;;;;;;;;4.50;4.50;;;;;27.76;34.70;101443.94;5095962;27;45446;-84
2023/07/07 06:48:04;;;;;;;;;6.00;5.00;;;;;27.75;34.80;101451.13;5095781;27;46068;-84
2023/07/07 06:50:34;;;;;;;;;6.00;5.00;;;;;27.70;34.42;101441.06;5096049;27;45403;-84
2023/07/07 06:52:59;;;;;;;;;4.67;4.00;;;;;27.80;34.18;101461.22;5112484;27;45420;-84
2023/07/07 06:55:25;;;;;;;;;5.00;4.00;;;;;27.82;34.46;101453.81;5111835;27;45471;-83
2023/07/07 06:57:50;;;;;;;;;8.00;4.67;;;;;27.82;34.95;101456.50;5095871;27;46348;-84
2023/07/07 07:00:17;;;;;;;;;6.00;4.33;;;;;27.82;34.50;101446.63;5096829;27;45403;-84
2023/07/07 07:02:43;;;;;;;;;5.00;5.00;;;;;27.79;34.63;101436.31;5096303;27;45236;-85
2023/07/07 07:05:09;;;;;;;;;6.67;5.00;;;;;27.87;34.50;101453.25;5095963;27;45554;-84
2023/07/07 07:07:35;;;;;;;;;3.00;3.00;;;;;27.82;34.89;101446.63;5094321;27;47103;-84
2023/07/07 07:10:02;;;;;;;;;5.00;4.00;;;;;27.87;34.38;101437.19;5096078;27;45255;-84
2023/07/07 07:12:28;;;;;;;;;4.00;3.67;;;;;27.81;34.97;101425.47;5095657;27;45325;-84
2023/07/07 07:14:53;;;;;;;;;3.00;3.00;;;;;27.85;34.29;101429.34;5094609;27;45621;-84
2023/07/07 07:17:19;;;;;;;;;6.00;4.67;;;;;27.87;34.46;101431.84;5095813;27;46387;-84
2023/07/07 07:19:44;;;;;;;;;4.33;4.33;;;;;27.89;34.61;101429.78;5094609;27;45396;-84
2023/07/07 07:22:09;;;;;;;;;7.67;5.67;;;;;27.88;34.73;101428.13;5095784;27;45419;-84
2023/07/07 07:24:35;;;;;;;;;3.33;3.33;;;;;27.81;34.67;101420.13;5095868;27;45391;-84
2023/07/07 07:27:00;;;;;;;;;4.33;3.00;;;;;27.85;34.49;101422.16;5093842;27;47250;-85
2023/07/07 07:29:26;;;;;;;;;6.00;5.33;;;;;27.83;34.71;101418.06;5096028;27;45435;-85
2023/07/07 07:31:51;;;;;;;;;5.67;4.67;;;;;27.91;34.95;101433.91;5095772;27;45605;-85
2023/07/07 07:34:25;;;;;;;;;4.67;4.00;;;;;27.89;34.64;101421.75;5094872;27;45421;-84
2023/07/07 07:36:51;;;;;;;;;5.33;5.00;;;;;27.93;34.83;101433.69;5096043;27;45637;-84
2023/07/07 07:39:18;;;;;;;;;5.00;5.00;;;;;27.93;34.57;101426.47;5098001;27;45496;-84
2023/07/07 07:41:46;;;;;;;;;4.00;4.00;;;;;27.93;35.04;101429.16;5098234;27;45372;-85
2023/07/07 07:44:13;;;;;;;;;4.33;4.33;;;;;27.88;34.50;101417.44;5097716;27;45467;-84
2023/07/07 07:46:40;;;;;;;;;5.00;5.00;;;;;27.90;34.48;101426.06;5099018;27;46903;-84
2023/07/07 07:49:05;;;;;;;;;11.33;6.00;;;;;27.94;34.54;101428.13;5097295;27;45379;-84
2023/07/07 07:51:31;;;;;;;;;6.00;4.33;;;;;27.91;34.86;101415.19;5097413;27;46231;-84
2023/07/07 07:53:56;;;;;;;;;5.00;4.00;;;;;27.92;34.36;101421.34;5099110;27;45533;-83
2023/07/07 07:56:21;;;;;;;;;3.33;3.00;;;;;27.88;34.54;101414.75;5114029;27;47049;-84
2023/07/07 07:58:47;;;;;;;;;8.00;6.33;;;;;27.95;34.27;101426.25;5111825;27;45617;-83
2023/07/07 08:01:12;;;;;;;;;6.00;5.00;;;;;27.88;34.55;101418.25;5098963;27;45335;-84
2023/07/07 08:03:37;;;;;;;;;4.00;4.00;;;;;27.90;34.61;101423.38;5097582;27;45496;-83
2023/07/07 08:06:03;;;;;;;;;4.67;4.00;;;;;27.91;34.90;101417.84;5098491;27;45384;-84
2023/07/07 08:08:28;;;;;;;;;5.00;4.33;;;;;27.90;34.41;101416.19;5097530;27;45600;-84
2023/07/07 08:10:53;;;;;;;;;6.67;4.33;;;;;27.94;34.67;101413.94;5096754;27;45357;-84
2023/07/07 08:13:19;;;;;;;;;3.67;3.67;;;;;27.94;34.75;101412.09;5098327;27;45517;-84
2023/07/07 08:15:44;;;;;;;;;7.00;5.33;;;;;27.95;34.41;101413.72;5096792;27;45487;-84
2023/07/07 08:18:09;;;;;;;;;4.67;4.67;;;;;27.89;34.44;101403.03;5097065;27;45486;-83
2023/07/07 08:20:35;;;;;;;;;5.00;5.00;;;;;27.92;34.53;101414.13;5098502;27;45424;-83
2023/07/07 08:23:00;;;;;;;;;4.00;3.67;;;;;27.96;34.59;101419.91;5098591;27;45470;-84
2023/07/07 08:25:27;;;;;;;;;3.00;3.00;;;;;27.92;34.55;101399.97;5096420;27;46636;-84
2023/07/07 08:27:53;;;;;;;;;5.00;3.00;;;;;27.88;35.00;101399.53;5098308;27;45321;-84
2023/07/07 08:30:19;;;;;;;;;3.00;2.33;;;;;28.00;34.70;101414.97;5098492;27;45464;-84
2023/07/07 08:32:44;;;;;;;;;4.33;4.33;;;;;27.95;34.76;101412.91;5096629;27;45344;-84
2023/07/07 08:35:11;;;;;;;;;4.00;4.00;;;;;28.00;34.64;101412.28;5098222;27;46327;-84
2023/07/07 08:37:37;;;;;;;;;3.67;3.67;;;;;28.01;34.71;101412.06;5098225;27;45400;-84
2023/07/07 08:40:03;;;;;;;;;3.33;3.33;;;;;27.98;34.55;101401.78;5098108;27;45383;-85
2023/07/07 08:42:39;;;;;;;;;4.00;4.00;;;;;28.02;34.66;101410.22;5097087;27;45579;-84
2023/07/07 08:45:12;;;;;;;;;7.00;5.00;;;;;27.98;34.58;101400.97;5097779;27;47236;-84
2023/07/07 08:47:47;;;;;;;;;2.33;2.33;;;;;28.01;34.56;101408.56;5096254;27;45360;-84
2023/07/07 08:50:25;;;;;;;;;5.00;4.00;;;;;27.98;34.20;101403.63;5097476;27;45391;-84
2023/07/07 08:53:09;;;;;;;;;5.00;4.00;;;;;28.02;34.42;101408.38;5097514;27;45344;-83
2023/07/07 08:56:11;;;;;;;;;2.67;2.67;;;;;27.96;34.39;101396.66;5096363;27;48274;-84
2023/07/07 08:59:04;;;;;;;;;5.00;3.33;;;;;28.03;35.00;101395.81;5097657;27;45474;-84
2023/07/07 09:01:43;;;;;;;;;6.33;4.33;;;;;27.99;34.86;101390.06;5097972;27;45388;-84
2023/07/07 09:04:41;;;;;;;;;4.00;4.00;;;;;28.02;34.98;101391.50;5096043;27;45327;-84
2023/07/07 09:07:37;;;;;;;;;6.00;4.00;;;;;28.00;34.68;101386.34;5096231;27;45699;-84
2023/07/07 09:10:30;;;;;;;;;4.00;4.00;;;;;27.98;34.57;101390.25;5094096;27;45279;-84
2023/07/07 09:13:05;;;;;;;;;4.00;4.00;;;;;28.00;34.81;101385.56;5097811;27;45307;-84
2023/07/07 09:15:38;;;;;;;;;3.67;3.67;;;;;28.05;34.92;101394.56;5096442;27;45303;-83
2023/07/07 09:18:19;;;;;;;;;4.67;4.67;;;;;28.05;34.76;101391.09;5094256;27;46341;-84
2023/07/07 09:20:51;;;;;;;;;4.00;3.33;;;;;28.03;34.66;101383.25;5097190;27;45468;-84
2023/07/07 09:23:21;;;;;;;;;6.00;5.00;;;;;28.02;34.63;101387.00;5095887;27;45337;-84
2023/07/07 09:26:01;;;;;;;;;4.00;4.00;;;;;27.90;34.67;101368.06;5097420;27;45307;-84
2023/07/07 09:28:31;;;;;;;;;3.67;3.67;;;;;28.05;34.63;101385.75;5096930;27;45536;-84
2023/07/07 09:31:05;;;;;;;;;3.00;3.00;;;;;28.06;34.82;101390.88;5096670;27;45349;-84
2023/07/07 09:33:31;;;;;;;;;3.33;3.33;;;;;28.04;34.88;101374.22;5097221;27;45432;-84
2023/07/07 09:36:15;;;;;;;;;4.00;4.00;;;;;28.01;34.66;101379.97;5096118;27;45447;-85
2023/07/07 09:39:19;;;;;;;;;3.33;3.33;;;;;28.04;34.42;101373.41;5095396;27;47196;-84
2023/07/07 09:41:54;;;;;;;;;5.00;4.00;;;;;28.06;34.32;101379.34;5095731;27;45340;-84
2023/07/07 09:44:31;;;;;;;;;3.67;3.67;;;;;28.03;34.38;101367.22;5097175;27;45383;-84
2023/07/07 09:47:17;;;;;;;;;3.33;3.33;;;;;28.06;34.92;101371.31;5096980;27;45523;-83
2023/07/07 09:49:58;;;;;;;;;4.33;4.33;;;;;28.09;34.53;101372.75;5096832;27;46479;-84
2023/07/07 09:52:46;;;;;;;;;4.33;4.00;;;;;28.11;34.66;101371.53;5091822;27;45380;-84
2023/07/07 09:55:24;;;;;;;;;6.33;5.00;;;;;28.11;34.84;101371.53;5075133;27;45317;-84
2023/07/07 09:57:59;;;;;;;;;4.33;4.33;;;;;28.10;34.82;101364.53;5075169;28;45293;-84
2023/07/07 10:00:27;;;;;;;;;4.33;4.00;;;;;28.06;34.58;101361.47;5094505;27;46622;-85
2023/07/07 10:02:54;;;;;;;;;4.67;4.33;;;;;28.06;34.46;101361.47;5095549;27;45424;-84
2023/07/07 10:05:26;;;;;;;;;6.00;4.00;;;;;28.05;35.18;101346.44;5095466;27;45400;-83
2023/07/07 10:07:52;;;;;;;;;5.67;5.00;;;;;28.11;35.03;101360.81;5095120;27;45649;-85
2023/07/07 10:10:17;;;;;;;;;6.00;5.00;;;;;28.12;34.71;101357.13;5095851;27;45373;-85
2023/07/07 10:12:45;;;;;;;;;5.00;5.00;;;;;28.09;34.85;101346.00;5095089;27;45438;-85
2023/07/07 10:15:35;;;;;;;;;3.33;3.33;;;;;28.10;34.77;101348.50;5095517;27;45539;-84
2023/07/07 10:18:12;;;;;;;;;2.67;2.67;;;;;28.12;34.42;101349.09;5096345;27;45307;-86
2023/07/07 10:20:40;;;;;;;;;3.67;3.00;;;;;28.14;34.86;101346.22;5095955;27;45476;-85
2023/07/07 10:23:10;;;;;;;;;4.00;4.00;;;;;28.06;34.57;101333.88;5095106;27;46065;-84
2023/07/07 10:25:35;;;;;;;;;4.67;4.67;;;;;28.03;34.54;101327.09;5095265;27;45346;-85
2023/07/07 10:28:01;;;;;;;;;3.33;3.33;;;;;28.10;34.51;101340.47;5095123;27;45379;-85
2023/07/07 10:30:27;;;;;;;;;4.00;4.00;;;;;28.13;35.21;101340.03;5096248;27;46360;-84
2023/07/07 10:32:52;;;;;;;;;5.67;5.67;;;;;28.10;35.08;101336.97;5095244;27;45406;-85
2023/07/07 10:35:20;;;;;;;;;4.00;4.00;;;;;28.08;34.39;101329.16;5095150;27;45328;-85
2023/07/07 10:37:46;;;;;;;;;4.67;4.67;;;;;28.12;34.71;101334.91;5096637;27;45334;-85
2023/07/07 10:40:21;;;;;;;;;4.50;4.00;;;;;28.08;34.97;101334.50;5094748;27;46323;-85
2023/07/07 10:42:52;;;;;;;;;4.00;4.00;;;;;28.16;34.72;101338.78;5094872;27;45344;-85
2023/07/07 10:45:17;;;;;;;;;5.33;5.33;;;;;28.09;34.74;101325.44;5095947;27;45369;-85
2023/07/07 10:47:43;;;;;;;;;4.00;4.00;;;;;28.08;35.03;101315.75;5095980;27;45313;-84
2023/07/07 10:50:15;;;;;;;;;4.33;4.00;;;;;28.17;34.60;101345.78;5094311;27;46988;-85
2023/07/07 10:53:08;;;;;;;;;4.33;3.33;;;;;28.17;34.50;101340.44;5096088;27;45316;-84
2023/07/07 10:56:05;;;;;;;;;5.00;5.00;;;;;28.17;34.62;101327.06;5094806;27;45414;-86
2023/07/07 10:58:49;;;;;;;;;5.33;4.67;;;;;28.17;35.13;101337.78;5094638;27;45538;-84
2023/07/07 11:01:36;;;;;;;;;5.33;5.33;;;;;28.16;35.34;101330.75;5095898;27;46343;-85
2023/07/07 11:04:28;;;;;;;;;2.67;2.67;;;;;28.17;35.20;101321.72;5095496;27;45278;-85
2023/07/07 11:06:59;;;;;;;;;4.00;4.00;;;;;28.16;34.73;101325.41;5095821;27;45399;-85
2023/07/07 11:09:45;;;;;;;;;4.00;3.00;;;;;28.17;34.62;101321.72;5095005;27;45321;-84
2023/07/07 11:12:23;;;;;;;;;5.67;4.00;;;;;28.16;34.60;101320.91;5096965;27;45688;-85
2023/07/07 11:14:57;;;;;;;;;4.67;4.00;;;;;28.16;34.68;101322.75;5097642;27;45528;-85
2023/07/07 11:18:00;;;;;;;;;5.00;5.00;;;;;28.16;34.54;101320.91;5097475;27;45360;-85
2023/07/07 11:20:39;;;;;;;;;4.00;4.00;;;;;28.16;34.70;101320.06;5099041;27;45474;-85
2023/07/07 11:23:19;;;;;;;;;5.33;5.00;;;;;28.16;34.77;101323.56;5097776;27;48213;-84
2023/07/07 11:26:03;;;;;;;;;3.33;3.00;;;;;28.16;34.87;101315.53;5097807;27;45414;-85
2023/07/07 11:28:45;;;;;;;;;3.00;3.00;;;;;28.16;35.00;101315.53;5099827;27;45487;-85
2023/07/07 11:31:19;;;;;;;;;3.33;3.33;;;;;28.17;34.57;101327.91;5097449;27;45310;-85
2023/07/07 11:34:20;;;;;;;;;6.00;5.00;;;;;28.09;34.84;101300.53;5097439;27;46562;-85
2023/07/07 11:36:48;;;;;;;;;4.00;4.00;;;;;28.18;34.90;101320.69;5097619;27;45424;-85